Aérodrome :
LOGIN :

S'inscrire | Disclaimer

   EN    FR    IT 

 










Légende :    VFR   VFR Marginal   IFR   IFR Intensif   IFR Très Intensif
Visi : 
Plafond : 
>= 8 km
>= 3000ft
5 à 8 km
1000 à 3000 ft
1500m à 5 km
500 à 1000 ft
800 à 1500m
200 à 500 ft
< 800m
< 200 ft
Symboles :   Orages  Brouillard  Fortes neiges  Fortes précipitations  Vent > 20 kt
SIGMETs :   Divers  Orages  Givrage  Turbulence  Onde Orograph.  Cendres Volcan.







- Altitude de l'aérodrome : 124 ft
- Code IATA : RNS
- Voir les cartes d'approche


LFRN - Rennes

DERNIER METAR :
  • 241000Z AUTO 26009KT 220V290 9999 SCT034 SCT047 BKN054 21/14 Q1020 NOSIG

METARs EXPIRÉS :
  • 240930Z AUTO 26009KT 230V290 9999 BKN034 BKN040 OVC050 22/14 Q1020 NOSIG
  • 240900Z AUTO 25009KT 190V290 9999 BKN031 21/13 Q1020 NOSIG
  • 240830Z AUTO 25008KT 200V280 9999 BKN029 21/14 Q1020 NOSIG
  • 240800Z AUTO 25009KT 200V280 9999 FEW028 20/13 Q1020 NOSIG
  • 240730Z AUTO 26007KT 210V280 9999 FEW022 19/13 Q1020 NOSIG

TAF TAF LFRN
Valide du 23 à 18h jusqu'au 24 à 18h UTC


231700Z 2318/2418 36010KT 9999 SCT040
BECMG 2319/2321 VRB03KT
TEMPO 2402/2408 BKN007
BECMG 2404/2406 25008KT
ATIS : +33 2 99 67 72 50
Pas de NOTAMs connus pour ce terrain.



MET'MAP, la Météo Aéronautique d'un coup d'oeil ! - Copyright ORBIFLY Décembre 2007 - Disclaimer

ORBIFLY MET'MAP TEAM :

Programmation & Développement : Alexandra Zaïnal
Conception & Développement : Baudouin d'Aumeries
Co-Programmation & Développement : Marc-Olivier Méhu
Soutien technique & logistique : Manuel Goepfert

Contact : metmap@orbifly.com




SOURCES & CREDITS :

   NOAA